createdAt,value
2023-04-02T00:02:23.425Z,98895.81
2023-04-02T00:05:31.490Z,98893.09
2023-04-02T00:08:01.158Z,98890.25
2023-04-02T00:10:39.419Z,98893.84
2023-04-02T00:13:17.598Z,98891.03
2023-04-02T00:15:47.920Z,98899.97
2023-04-02T00:18:17.379Z,98905.34
2023-04-02T00:20:49.074Z,98901.88
2023-04-02T00:23:16.510Z,98902.75
2023-04-02T00:25:45.602Z,98911.53
2023-04-02T00:28:18.595Z,98911.06
2023-04-02T00:31:16.005Z,98906.56
2023-04-02T00:33:43.850Z,98912.66
2023-04-02T00:36:12.006Z,98914.31
2023-04-02T00:38:43.818Z,98910.59
2023-04-02T00:41:16.613Z,98913.88
2023-04-02T00:43:46.890Z,98914.78
2023-04-02T00:46:16.947Z,98914.03
2023-04-02T00:49:09.012Z,98918.03
2023-04-02T00:51:41.804Z,98923.28
2023-04-02T00:54:15.752Z,98926.84
2023-04-02T00:56:45.854Z,98924.13
2023-04-02T00:59:35.329Z,98918.91
2023-04-02T01:02:26.609Z,98920.16
2023-04-02T01:05:01.033Z,98916.91
2023-04-02T01:07:50.055Z,98922.22
2023-04-02T01:10:32.689Z,98920.75
2023-04-02T01:13:31.353Z,98912.78
2023-04-02T01:16:13.202Z,98912.59
2023-04-02T01:18:46.856Z,98922.34
2023-04-02T01:21:52.765Z,98916.84
2023-04-02T01:24:21.521Z,98919.78
2023-04-02T01:26:55.567Z,98924.16
2023-04-02T01:29:29.372Z,98927.25
2023-04-02T01:32:01.249Z,98926.47
2023-04-02T01:34:29.695Z,98930.19
2023-04-02T01:37:16.902Z,98929.62
2023-04-02T01:40:08.160Z,98936.50
2023-04-02T01:43:12.486Z,98931.84
2023-04-02T01:45:40.291Z,98928.53
2023-04-02T01:48:17.173Z,98935.38
2023-04-02T01:50:46.079Z,98926.87
2023-04-02T01:53:16.356Z,98934.25
2023-04-02T01:55:59.604Z,98933.09
2023-04-02T01:58:29.345Z,98937.25
2023-04-02T02:01:09.337Z,98937.06
2023-04-02T02:03:43.674Z,98945.53
2023-04-02T02:06:13.519Z,98943.78
2023-04-02T02:08:51.000Z,98948.06
2023-04-02T02:11:21.645Z,98945.47
2023-04-02T02:14:00.801Z,98951.72
2023-04-02T02:16:30.100Z,98949.00
2023-04-02T02:19:01.602Z,98954.34
2023-04-02T02:21:39.694Z,98953.38
2023-04-02T02:24:35.703Z,98948.41
2023-04-02T02:27:32.138Z,98954.00
2023-04-02T02:30:18.125Z,98950.34
2023-04-02T02:32:52.073Z,98942.84
2023-04-02T02:35:30.983Z,98940.22
2023-04-02T02:38:30.614Z,98955.03
2023-04-02T02:41:15.248Z,98948.53
2023-04-02T02:43:48.616Z,98953.03
2023-04-02T02:46:18.370Z,98957.22
2023-04-02T02:48:46.825Z,98952.81
2023-04-02T02:51:27.060Z,98962.56
2023-04-02T02:53:59.987Z,98946.78
2023-04-02T02:56:28.334Z,98952.34
2023-04-02T02:58:56.299Z,98945.56
2023-04-02T03:01:24.154Z,98948.09
2023-04-02T03:03:53.669Z,98945.56
2023-04-02T03:06:22.275Z,98948.09
2023-04-02T03:09:10.806Z,98941.34
2023-04-02T03:11:52.528Z,98945.31
2023-04-02T03:14:32.379Z,98942.88
2023-04-02T03:17:10.665Z,98941.87
2023-04-02T03:19:49.185Z,98939.53
2023-04-02T03:22:23.550Z,98941.84
2023-04-02T03:25:04.918Z,98946.31
2023-04-02T03:27:35.388Z,98948.31
2023-04-02T03:30:29.522Z,98951.75
2023-04-02T03:33:02.298Z,98955.66
2023-04-02T03:35:38.447Z,98953.16
2023-04-02T03:38:27.458Z,98962.19
2023-04-02T03:41:13.586Z,98959.03
2023-04-02T03:43:45.834Z,98955.34
2023-04-02T03:46:24.920Z,98962.16
2023-04-02T03:48:59.278Z,98974.00
2023-04-02T03:51:27.796Z,98973.25
2023-04-02T03:53:56.314Z,98974.22
2023-04-02T03:56:31.493Z,98968.78
2023-04-02T03:59:06.357Z,98974.97
2023-04-02T04:01:39.666Z,98974.00
2023-04-02T04:04:16.835Z,98975.41
2023-04-02T04:06:46.667Z,98981.66
2023-04-02T04:09:27.366Z,98984.22
2023-04-02T04:12:19.685Z,98985.47
2023-04-02T04:15:35.090Z,98981.25
2023-04-02T04:18:34.878Z,98987.25
2023-04-02T04:21:11.469Z,98994.09
2023-04-02T04:23:41.160Z,98986.22
2023-04-02T04:26:12.242Z,98988.03
2023-04-02T04:28:58.243Z,98994.16
2023-04-02T04:31:39.538Z,98993.38
2023-04-02T04:34:17.601Z,98995.75
2023-04-02T04:37:01.727Z,98995.06
2023-04-02T04:39:47.513Z,99000.22
2023-04-02T04:42:23.172Z,99010.34
2023-04-02T04:44:57.298Z,99015.44
2023-04-02T04:47:33.357Z,99016.69
2023-04-02T04:50:06.071Z,99014.12
2023-04-02T04:52:39.234Z,99017.34
2023-04-02T04:55:29.368Z,99008.47
2023-04-02T04:58:03.957Z,99011.63
2023-04-02T05:00:42.417Z,99008.09
2023-04-02T05:03:19.098Z,99011.28
2023-04-02T05:05:46.706Z,99021.00
2023-04-02T05:08:27.046Z,99011.25
2023-04-02T05:11:01.250Z,99020.59
2023-04-02T05:13:48.197Z,99024.87
2023-04-02T05:16:26.343Z,99023.94
2023-04-02T05:19:01.006Z,99019.41
2023-04-02T05:21:31.407Z,99023.69
2023-04-02T05:24:30.034Z,99028.31
2023-04-02T05:27:02.603Z,99026.53
2023-04-02T05:29:35.636Z,99029.06
2023-04-02T05:32:23.176Z,99032.44
2023-04-02T05:34:53.522Z,99028.81
2023-04-02T05:37:24.780Z,99034.19
2023-04-02T05:39:57.400Z,99032.87
2023-04-02T05:42:29.085Z,99035.88
2023-04-02T05:45:20.289Z,99037.97
2023-04-02T05:47:50.332Z,99039.66
2023-04-02T05:50:24.755Z,99039.25
2023-04-02T05:52:59.079Z,99044.09
2023-04-02T05:55:35.488Z,99043.03
2023-04-02T05:58:37.159Z,99047.16
2023-04-02T06:01:45.323Z,99049.84
2023-04-02T06:04:27.445Z,99053.12
2023-04-02T06:07:18.475Z,99042.22
2023-04-02T06:09:54.454Z,99043.59
2023-04-02T06:12:31.524Z,99048.00
2023-04-02T06:14:59.718Z,99048.66
2023-04-02T06:17:28.314Z,99056.22
2023-04-02T06:19:58.284Z,99065.31
2023-04-02T06:22:40.010Z,99063.94
2023-04-02T06:25:21.543Z,99070.91
2023-04-02T06:27:50.684Z,99069.38
2023-04-02T06:30:24.797Z,99069.09
2023-04-02T06:32:52.999Z,99076.13
2023-04-02T06:35:20.693Z,99076.13
2023-04-02T06:37:53.651Z,99070.47
2023-04-02T06:40:24.677Z,99072.16
2023-04-02T06:42:59.451Z,99075.75
2023-04-02T06:45:38.593Z,99084.41
2023-04-02T06:48:15.457Z,99083.56
2023-04-02T06:50:49.937Z,99084.03
2023-04-02T06:53:44.861Z,99079.50
2023-04-02T06:56:42.626Z,99084.25
2023-04-02T06:59:12.748Z,99083.84
2023-04-02T07:01:46.151Z,99088.81
2023-04-02T07:04:13.701Z,99080.50
2023-04-02T07:06:41.694Z,99089.34
2023-04-02T07:09:10.463Z,99086.75
2023-04-02T07:11:38.817Z,99093.72
2023-04-02T07:14:07.021Z,99087.56
2023-04-02T07:16:36.573Z,99088.03
2023-04-02T07:19:04.520Z,99098.22
2023-04-02T07:21:32.666Z,99103.66
2023-04-02T07:24:00.295Z,99096.31
2023-04-02T07:26:28.015Z,99102.53
2023-04-02T07:28:56.479Z,99103.88
2023-04-02T07:31:27.192Z,99105.03
2023-04-02T07:33:58.680Z,99103.41
2023-04-02T07:36:28.031Z,99103.94
2023-04-02T07:38:55.930Z,99099.75
2023-04-02T07:41:23.401Z,99101.66
2023-04-02T07:43:51.221Z,99107.16
2023-04-02T07:46:20.145Z,99108.09
2023-04-02T07:48:47.888Z,99103.59
2023-04-02T07:51:20.589Z,99116.41
2023-04-02T07:53:54.807Z,99119.00
2023-04-02T07:56:23.938Z,99115.34
2023-04-02T07:58:51.588Z,99108.56
2023-04-02T08:01:20.860Z,99109.91
2023-04-02T08:03:48.694Z,99115.47
2023-04-02T08:06:16.212Z,99116.31
2023-04-02T08:08:43.677Z,99116.75
2023-04-02T08:11:11.566Z,99119.50
2023-04-02T08:13:39.679Z,99129.00
2023-04-02T08:16:07.387Z,99133.16
2023-04-02T08:18:35.751Z,99129.16
2023-04-02T08:21:06.658Z,99139.69
2023-04-02T08:23:35.051Z,99130.41
2023-04-02T08:26:02.750Z,99132.72
2023-04-02T08:28:30.183Z,99137.66
2023-04-02T08:30:57.700Z,99137.09
2023-04-02T08:33:26.189Z,99139.44
2023-04-02T08:35:53.763Z,99136.34
2023-04-02T08:38:21.936Z,99144.31
2023-04-02T08:40:52.531Z,99145.13
2023-04-02T08:43:57.723Z,99151.50
2023-04-02T08:46:39.054Z,99156.53
2023-04-02T08:49:16.960Z,99149.28
2023-04-02T08:51:46.398Z,99148.19
2023-04-02T08:54:31.598Z,99161.59
2023-04-02T08:57:07.623Z,99160.63
2023-04-02T08:59:38.193Z,99169.09
2023-04-02T09:02:24.758Z,99169.19
2023-04-02T09:04:52.293Z,99162.66
2023-04-02T09:07:20.227Z,99163.94
2023-04-02T09:09:48.843Z,99165.31
2023-04-02T09:12:21.610Z,99169.91
2023-04-02T09:15:07.218Z,99171.19
2023-04-02T09:17:46.422Z,99173.72
2023-04-02T09:20:26.469Z,99168.59
2023-04-02T09:22:54.623Z,99167.97
2023-04-02T09:25:32.045Z,99171.97
2023-04-02T09:28:04.504Z,99172.72
2023-04-02T09:30:32.254Z,99175.88
2023-04-02T09:33:03.233Z,99179.84
2023-04-02T09:35:32.995Z,99185.25
2023-04-02T09:38:29.094Z,99187.16
2023-04-02T09:41:01.337Z,99193.87
2023-04-02T09:43:37.039Z,99191.88
2023-04-02T09:46:13.768Z,99193.34
2023-04-02T09:48:49.092Z,99194.72
2023-04-02T09:51:22.073Z,99194.09
2023-04-02T09:53:51.883Z,99198.34
2023-04-02T09:56:24.271Z,99209.28
2023-04-02T09:59:17.336Z,99192.28
2023-04-02T10:01:58.258Z,99215.25
2023-04-02T10:04:49.657Z,99203.22
2023-04-02T10:07:41.305Z,99201.69
2023-04-02T10:10:27.869Z,99203.38
2023-04-02T10:13:00.464Z,99204.62
2023-04-02T10:15:46.530Z,99202.66
2023-04-02T10:18:17.855Z,99201.22
2023-04-02T10:20:51.231Z,99196.00
2023-04-02T10:23:20.062Z,99197.66
2023-04-02T10:26:25.959Z,99193.37
2023-04-02T10:29:27.977Z,99192.22
2023-04-02T10:32:15.780Z,99194.78
2023-04-02T10:34:56.917Z,99191.53
2023-04-02T10:37:47.829Z,99193.72
2023-04-02T10:40:26.933Z,99179.50
2023-04-02T10:43:16.337Z,99187.56
2023-04-02T10:45:51.637Z,99183.03
2023-04-02T10:48:28.789Z,99186.81
2023-04-02T10:51:00.358Z,99180.16
2023-04-02T10:53:38.540Z,99183.13
2023-04-02T10:56:09.584Z,99181.12
2023-04-02T10:59:11.329Z,99171.41
2023-04-02T11:01:41.067Z,99170.94
2023-04-02T11:04:19.027Z,99176.47
2023-04-02T11:06:51.806Z,99179.16
2023-04-02T11:09:24.143Z,99183.66
2023-04-02T11:11:54.435Z,99187.13
2023-04-02T11:14:30.879Z,99175.72
2023-04-02T11:17:00.739Z,99178.75
2023-04-02T11:19:30.347Z,99182.56
2023-04-02T11:22:02.097Z,99175.69
2023-04-02T11:24:43.573Z,99172.50
2023-04-02T11:27:26.590Z,99174.34
2023-04-02T11:30:04.086Z,99167.16
2023-04-02T11:32:35.695Z,99172.94
2023-04-02T11:35:22.115Z,99167.12
2023-04-02T11:37:49.613Z,99159.41
2023-04-02T11:40:17.302Z,99158.44
2023-04-02T11:42:46.278Z,99156.19
2023-04-02T11:45:28.828Z,99160.69
2023-04-02T11:47:59.264Z,99164.25
2023-04-02T11:50:38.486Z,99159.12
2023-04-02T11:53:12.802Z,99164.28
2023-04-02T11:55:45.180Z,99166.38
2023-04-02T11:58:21.023Z,99159.62
2023-04-02T12:01:20.868Z,99150.69
2023-04-02T12:03:56.305Z,99157.16
2023-04-02T12:06:42.342Z,99150.75
2023-04-02T12:09:20.321Z,99151.47
2023-04-02T12:11:49.492Z,99148.94
2023-04-02T12:14:36.612Z,99145.69
2023-04-02T12:17:08.501Z,99151.09
2023-04-02T12:19:37.532Z,99138.81
2023-04-02T12:22:05.074Z,99146.81
2023-04-02T12:24:33.195Z,99138.72
2023-04-02T12:27:16.989Z,99133.81
2023-04-02T12:29:44.443Z,99131.69
2023-04-02T12:32:30.209Z,99127.59
2023-04-02T12:35:04.685Z,99122.53
2023-04-02T12:37:32.506Z,99122.22
2023-04-02T12:40:07.400Z,99118.13
2023-04-02T12:42:36.985Z,99114.81
2023-04-02T12:45:06.800Z,99120.38
2023-04-02T12:47:34.479Z,99123.00
2023-04-02T12:50:02.431Z,99113.97
2023-04-02T12:52:30.337Z,99108.03
2023-04-02T12:55:03.677Z,99098.34
2023-04-02T12:57:34.335Z,99106.47
2023-04-02T13:00:19.976Z,99117.16
2023-04-02T13:02:52.811Z,99110.88
2023-04-02T13:05:41.206Z,99122.94
2023-04-02T13:08:45.059Z,99110.78
2023-04-02T13:11:12.715Z,99107.75
2023-04-02T13:13:42.161Z,99108.63
2023-04-02T13:16:15.365Z,99114.44
2023-04-02T13:18:45.967Z,99110.47
2023-04-02T13:21:16.307Z,99120.56
2023-04-02T13:23:44.505Z,99122.81
2023-04-02T13:26:19.196Z,99117.44
2023-04-02T13:29:03.320Z,99112.06
2023-04-02T13:31:32.597Z,99118.81
2023-04-02T13:34:00.367Z,99122.34
2023-04-02T13:36:29.319Z,99122.69
2023-04-02T13:38:57.356Z,99128.94
2023-04-02T13:41:27.391Z,99147.16
2023-04-02T13:43:55.890Z,99138.41
2023-04-02T13:46:26.359Z,99140.34
2023-04-02T13:48:55.238Z,99130.19
2023-04-02T13:51:25.435Z,99144.00
2023-04-02T13:53:56.125Z,99134.91
2023-04-02T13:56:24.793Z,99139.69
2023-04-02T13:58:52.418Z,99134.91
2023-04-02T14:01:21.468Z,99142.34
2023-04-02T14:03:49.263Z,99130.63
2023-04-02T14:06:34.993Z,99122.91
2023-04-02T14:09:04.702Z,99122.72
2023-04-02T14:11:50.481Z,99121.84
2023-04-02T14:14:39.318Z,99113.28
2023-04-02T14:17:09.740Z,99118.03
2023-04-02T14:20:03.870Z,99120.75
2023-04-02T14:23:08.285Z,99111.47
2023-04-02T14:25:41.966Z,99114.69
2023-04-02T14:28:29.873Z,99121.25
2023-04-02T14:31:06.607Z,99111.44
2023-04-02T14:33:51.620Z,99116.66
2023-04-02T14:36:39.508Z,99117.78
2023-04-02T14:39:26.498Z,99126.59
2023-04-02T14:41:58.501Z,99134.25
2023-04-02T14:44:29.262Z,99146.63
2023-04-02T14:47:02.637Z,99149.47
2023-04-02T14:49:34.678Z,99157.97
2023-04-02T14:52:06.714Z,99171.25
2023-04-02T14:54:50.209Z,99167.69
2023-04-02T14:57:24.405Z,99163.47
2023-04-02T14:59:54.842Z,99171.72
2023-04-02T15:02:41.106Z,99171.69
2023-04-02T15:05:14.783Z,99165.47
2023-04-02T15:08:06.550Z,99169.69
2023-04-02T15:10:37.199Z,99175.19
2023-04-02T15:13:10.538Z,99172.22
2023-04-02T15:15:58.652Z,99175.25
2023-04-02T15:18:26.878Z,99166.81
2023-04-02T15:21:09.256Z,99175.78
2023-04-02T15:23:58.781Z,99186.37
2023-04-02T15:26:36.062Z,99180.16
2023-04-02T15:29:09.279Z,99183.59
2023-04-02T15:31:44.112Z,99216.03
2023-04-02T15:34:39.870Z,99210.03
2023-04-02T15:37:23.218Z,99218.84
2023-04-02T15:40:21.944Z,99227.22
2023-04-02T15:43:09.561Z,99226.84
2023-04-02T15:45:39.870Z,99220.41
2023-04-02T15:48:16.471Z,99221.38
2023-04-02T15:51:03.679Z,99228.97
2023-04-02T15:54:26.997Z,99223.06
2023-04-02T15:57:13.094Z,99228.44
2023-04-02T15:59:42.430Z,99226.44
2023-04-02T16:02:16.173Z,99231.69
2023-04-02T16:04:52.609Z,99238.44
2023-04-02T16:07:29.056Z,99229.38
2023-04-02T16:10:03.909Z,99234.19
2023-04-02T16:12:32.099Z,99238.47
2023-04-02T16:15:07.850Z,99232.69
2023-04-02T16:17:42.296Z,99240.44
2023-04-02T16:20:25.975Z,99235.59
2023-04-02T16:23:03.280Z,99240.53
2023-04-02T16:25:57.120Z,99235.47
2023-04-02T16:28:29.643Z,99236.22
2023-04-02T16:31:42.333Z,99240.16
2023-04-02T16:34:48.179Z,99236.69
2023-04-02T16:37:21.042Z,99248.44
2023-04-02T16:40:13.627Z,99238.37
2023-04-02T16:42:56.519Z,99248.66
2023-04-02T16:45:38.860Z,99245.34
2023-04-02T16:48:25.005Z,99256.09
2023-04-02T16:51:13.646Z,99259.91
2023-04-02T16:54:02.187Z,99266.00
2023-04-02T16:56:53.214Z,99281.16
2023-04-02T16:59:42.774Z,99289.97
2023-04-02T17:02:27.610Z,99296.53
2023-04-02T17:05:20.010Z,99297.69
2023-04-02T17:07:56.375Z,99304.38
2023-04-02T17:10:31.167Z,99306.50
2023-04-02T17:13:53.084Z,99306.59
2023-04-02T17:16:44.575Z,99315.87
2023-04-02T17:19:14.618Z,99322.94
2023-04-02T17:21:45.699Z,99325.88
2023-04-02T17:24:33.920Z,99336.91
2023-04-02T17:27:11.451Z,99331.22
2023-04-02T17:29:41.744Z,99339.63
2023-04-02T17:32:25.697Z,99345.28
2023-04-02T17:34:53.183Z,99362.75
2023-04-02T17:37:43.473Z,99353.97
2023-04-02T17:40:24.067Z,99358.22
2023-04-02T17:43:11.020Z,99366.66
2023-04-02T17:45:50.339Z,99368.94
2023-04-02T17:48:36.890Z,99380.12
2023-04-02T17:51:22.937Z,99376.19
2023-04-02T17:54:03.522Z,99378.00
2023-04-02T17:56:45.142Z,99381.84
2023-04-02T17:59:27.790Z,99394.72
2023-04-02T18:02:01.481Z,99396.12
2023-04-02T18:04:48.533Z,99400.78
2023-04-02T18:07:24.334Z,99410.53
2023-04-02T18:10:07.190Z,99414.06
2023-04-02T18:12:34.493Z,99419.41
2023-04-02T18:15:27.632Z,99423.72
2023-04-02T18:18:37.066Z,99430.72
2023-04-02T18:21:13.560Z,99436.06
2023-04-02T18:23:59.271Z,99442.19
2023-04-02T18:26:35.406Z,99452.56
2023-04-02T18:29:33.012Z,99465.75
2023-04-02T18:32:38.091Z,99462.31
2023-04-02T18:35:20.698Z,99466.00
2023-04-02T18:38:03.565Z,99473.03
2023-04-02T18:41:09.548Z,99474.84
2023-04-02T18:43:57.572Z,99473.97
2023-04-02T18:46:31.081Z,99472.25
2023-04-02T18:49:23.952Z,99475.81
2023-04-02T18:51:55.890Z,99488.81
2023-04-02T18:54:32.165Z,99494.84
2023-04-02T18:57:01.958Z,99493.97
2023-04-02T18:59:49.818Z,99509.56
2023-04-02T19:02:20.456Z,99509.59
2023-04-02T19:05:02.265Z,99513.91
2023-04-02T19:07:32.017Z,99517.34
2023-04-02T19:10:22.968Z,99528.63
2023-04-02T19:12:50.481Z,99525.16
2023-04-02T19:15:20.251Z,99537.28
2023-04-02T19:18:13.722Z,99532.97
2023-04-02T19:20:57.585Z,99534.66
2023-04-02T19:23:49.973Z,99544.19
2023-04-02T19:26:22.764Z,99546.81
2023-04-02T19:29:22.926Z,99552.00
2023-04-02T19:32:05.900Z,99554.59
2023-04-02T19:34:40.367Z,99558.91
2023-04-02T19:37:33.823Z,99552.00
2023-04-02T19:40:13.421Z,99563.25
2023-04-02T19:42:49.268Z,99563.25
2023-04-02T19:45:31.612Z,99568.47
2023-04-02T19:47:59.977Z,99571.03
2023-04-02T19:50:28.467Z,99571.03
2023-04-02T19:52:55.878Z,99571.91
2023-04-02T19:55:23.938Z,99578.81
2023-04-02T19:57:54.561Z,99589.03
2023-04-02T20:00:22.293Z,99588.19
2023-04-02T20:02:50.307Z,99587.41
2023-04-02T20:05:17.803Z,99590.72
2023-04-02T20:07:45.410Z,99598.41
2023-04-02T20:10:13.227Z,99599.25
2023-04-02T20:12:40.723Z,99603.53
2023-04-02T20:15:08.686Z,99606.91
2023-04-02T20:17:36.725Z,99615.66
2023-04-02T20:20:04.490Z,99619.81
2023-04-02T20:22:31.887Z,99615.66
2023-04-02T20:24:59.662Z,99623.28
2023-04-02T20:27:27.143Z,99624.41
2023-04-02T20:29:54.495Z,99627.06
2023-04-02T20:32:22.591Z,99637.44
2023-04-02T20:34:50.118Z,99627.75
2023-04-02T20:37:17.511Z,99633.97
2023-04-02T20:39:45.508Z,99623.47
2023-04-02T20:42:14.105Z,99631.22
2023-04-02T20:44:41.584Z,99635.66
2023-04-02T20:47:09.344Z,99637.34
2023-04-02T20:49:37.052Z,99639.78
2023-04-02T20:52:04.580Z,99645.91
2023-04-02T20:54:32.229Z,99644.38
2023-04-02T20:56:59.775Z,99654.66
2023-04-02T20:59:27.210Z,99654.62
2023-04-02T21:01:55.921Z,99654.75
2023-04-02T21:04:23.539Z,99664.94
2023-04-02T21:06:56.770Z,99659.03
2023-04-02T21:09:24.478Z,99659.88
2023-04-02T21:11:51.941Z,99665.06
2023-04-02T21:14:19.399Z,99666.97
2023-04-02T21:16:47.358Z,99678.25
2023-04-02T21:19:14.927Z,99683.41
2023-04-02T21:21:44.224Z,99681.59
2023-04-02T21:24:11.932Z,99684.25
2023-04-02T21:26:41.418Z,99691.06
2023-04-02T21:29:10.166Z,99687.59
2023-04-02T21:31:39.246Z,99692.75
2023-04-02T21:34:08.500Z,99689.37
2023-04-02T21:36:37.807Z,99697.09
2023-04-02T21:39:07.886Z,99705.84
2023-04-02T21:41:38.298Z,99702.19
2023-04-02T21:44:07.281Z,99713.50
2023-04-02T21:46:38.640Z,99717.97
2023-04-02T21:49:09.641Z,99716.19
2023-04-02T21:51:38.505Z,99711.06
2023-04-02T21:54:06.677Z,99718.78
2023-04-02T21:56:37.138Z,99720.34
2023-04-02T21:59:06.206Z,99725.63
2023-04-02T22:01:37.095Z,99724.81
2023-04-02T22:04:06.160Z,99735.22
2023-04-02T22:06:38.052Z,99738.56
2023-04-02T22:09:09.557Z,99729.97
2023-04-02T22:11:39.816Z,99739.38
2023-04-02T22:14:07.682Z,99740.22
2023-04-02T22:16:36.112Z,99734.06
2023-04-02T22:19:06.004Z,99735.44
2023-04-02T22:21:34.382Z,99744.41
2023-04-02T22:24:07.188Z,99741.91
2023-04-02T22:26:35.611Z,99746.00
2023-04-02T22:29:04.078Z,99739.03
2023-04-02T22:31:35.062Z,99750.03
2023-04-02T22:34:04.410Z,99747.47
2023-04-02T22:36:32.090Z,99744.09
2023-04-02T22:39:00.550Z,99745.78
2023-04-02T22:41:29.405Z,99760.28
2023-04-02T22:43:58.159Z,99761.12
2023-04-02T22:46:26.841Z,99766.53
2023-04-02T22:48:55.801Z,99766.25
2023-04-02T22:51:24.567Z,99775.78
2023-04-02T22:53:53.993Z,99775.94
2023-04-02T22:56:31.998Z,99781.13
2023-04-02T22:58:59.884Z,99781.94
2023-04-02T23:01:31.565Z,99780.28
2023-04-02T23:03:59.054Z,99771.53
2023-04-02T23:06:26.949Z,99776.50
2023-04-02T23:08:54.379Z,99782.75
2023-04-02T23:11:27.346Z,99782.63
2023-04-02T23:13:56.677Z,99786.19
2023-04-02T23:16:26.980Z,99787.84
2023-04-02T23:18:56.138Z,99786.78
2023-04-02T23:21:24.416Z,99786.53
2023-04-02T23:23:51.830Z,99787.44
2023-04-02T23:26:21.949Z,99785.47
2023-04-02T23:28:50.157Z,99782.44
2023-04-02T23:31:20.958Z,99790.91
2023-04-02T23:33:49.496Z,99783.97
2023-04-02T23:36:27.380Z,99789.13
2023-04-02T23:38:57.966Z,99777.81
2023-04-02T23:41:27.186Z,99792.50
2023-04-02T23:43:56.200Z,99784.06
2023-04-02T23:46:24.133Z,99794.47
2023-04-02T23:48:52.219Z,99797.44
2023-04-02T23:51:20.193Z,99797.91
2023-04-02T23:53:48.897Z,99807.88
2023-04-02T23:56:16.485Z,99802.50
2023-04-02T23:58:44.187Z,99800.66
